sensor_id;sensor_type;location;lat;lon;timestamp;pressure;altitude;pressure_sealevel;temperature;humidity
52935;BME280;38802;50.198;19.796;2022-09-29T00:00:55;94754.69;;;9.22;81.46
52935;BME280;38802;50.198;19.796;2022-09-29T00:03:31;94747.32;;;9.21;81.42
52935;BME280;38802;50.198;19.796;2022-09-29T00:05:59;94749.21;;;9.20;81.61
52935;BME280;38802;50.198;19.796;2022-09-29T00:08:28;94751.59;;;9.19;81.73
52935;BME280;38802;50.198;19.796;2022-09-29T00:10:57;94753.46;;;9.17;81.66
52935;BME280;38802;50.198;19.796;2022-09-29T00:13:25;94753.50;;;9.17;81.74
52935;BME280;38802;50.198;19.796;2022-09-29T00:15:54;94756.64;;;9.17;81.58
52935;BME280;38802;50.198;19.796;2022-09-29T00:18:23;94757.29;;;9.15;81.50
52935;BME280;38802;50.198;19.796;2022-09-29T00:20:57;94757.48;;;9.13;81.84
52935;BME280;38802;50.198;19.796;2022-09-29T00:23:26;94758.16;;;9.13;81.79
52935;BME280;38802;50.198;19.796;2022-09-29T00:25:58;94762.20;;;9.13;81.77
52935;BME280;38802;50.198;19.796;2022-09-29T00:28:26;94765.55;;;9.12;81.75
52935;BME280;38802;50.198;19.796;2022-09-29T00:30:56;94767.50;;;9.11;81.89
52935;BME280;38802;50.198;19.796;2022-09-29T00:33:24;94770.67;;;9.11;81.82
52935;BME280;38802;50.198;19.796;2022-09-29T00:35:59;94771.85;;;9.09;81.69
52935;BME280;38802;50.198;19.796;2022-09-29T00:38:28;94775.17;;;9.08;81.78
52935;BME280;38802;50.198;19.796;2022-09-29T00:40:57;94785.69;;;9.06;81.68
52935;BME280;38802;50.198;19.796;2022-09-29T00:46:12;94794.39;;;9.01;81.76
52935;BME280;38802;50.198;19.796;2022-09-29T00:48:41;94794.58;;;8.99;81.76
52935;BME280;38802;50.198;19.796;2022-09-29T00:51:10;94798.42;;;8.97;81.86
52935;BME280;38802;50.198;19.796;2022-09-29T00:53:38;94800.30;;;8.92;81.84
52935;BME280;38802;50.198;19.796;2022-09-29T00:56:09;94796.74;;;8.86;81.83
52935;BME280;38802;50.198;19.796;2022-09-29T00:58:57;94795.31;;;8.81;81.68
52935;BME280;38802;50.198;19.796;2022-09-29T01:01:29;94792.63;;;8.76;82.02
52935;BME280;38802;50.198;19.796;2022-09-29T01:04:02;94794.58;;;8.73;81.96
52935;BME280;38802;50.198;19.796;2022-09-29T01:06:42;94791.15;;;8.70;82.07
52935;BME280;38802;50.198;19.796;2022-09-29T01:09:18;94790.95;;;8.69;82.08
52935;BME280;38802;50.198;19.796;2022-09-29T01:11:47;94793.02;;;8.67;82.15
52935;BME280;38802;50.198;19.796;2022-09-29T01:14:15;94796.61;;;8.64;82.09
52935;BME280;38802;50.198;19.796;2022-09-29T01:16:44;94797.51;;;8.62;82.14
52935;BME280;38802;50.198;19.796;2022-09-29T01:19:14;94804.06;;;8.61;82.14
52935;BME280;38802;50.198;19.796;2022-09-29T01:32:42;94824.58;;;8.55;82.30
52935;BME280;38802;50.198;19.796;2022-09-29T01:40:45;94824.02;;;8.51;82.50
52935;BME280;38802;50.198;19.796;2022-09-29T01:43:17;94820.58;;;8.50;82.46
52935;BME280;38802;50.198;19.796;2022-09-29T01:45:48;94818.52;;;8.51;82.56
52935;BME280;38802;50.198;19.796;2022-09-29T01:48:26;94819.83;;;8.49;82.52
52935;BME280;38802;50.198;19.796;2022-09-29T01:50:57;94822.23;;;8.50;82.51
52935;BME280;38802;50.198;19.796;2022-09-29T01:56:37;94821.20;;;8.48;82.66
52935;BME280;38802;50.198;19.796;2022-09-29T02:01:55;94818.27;;;8.46;82.55
52935;BME280;38802;50.198;19.796;2022-09-29T02:04:31;94820.35;;;8.46;82.54
52935;BME280;38802;50.198;19.796;2022-09-29T02:07:02;94818.36;;;8.45;82.63
52935;BME280;38802;50.198;19.796;2022-09-29T02:09:34;94824.88;;;8.44;82.54
52935;BME280;38802;50.198;19.796;2022-09-29T02:12:04;94826.93;;;8.42;82.61
52935;BME280;38802;50.198;19.796;2022-09-29T02:14:38;94825.72;;;8.40;82.46
52935;BME280;38802;50.198;19.796;2022-09-29T02:17:19;94829.17;;;8.39;82.58
52935;BME280;38802;50.198;19.796;2022-09-29T02:19:48;94829.98;;;8.38;82.71
52935;BME280;38802;50.198;19.796;2022-09-29T02:22:17;94828.01;;;8.36;82.73
52935;BME280;38802;50.198;19.796;2022-09-29T02:24:46;94829.11;;;8.36;82.88
52935;BME280;38802;50.198;19.796;2022-09-29T02:27:16;94832.64;;;8.35;82.72
52935;BME280;38802;50.198;19.796;2022-09-29T02:29:44;94830.98;;;8.34;82.87
52935;BME280;38802;50.198;19.796;2022-09-29T02:32:12;94834.73;;;8.33;82.79
52935;BME280;38802;50.198;19.796;2022-09-29T02:34:42;94837.36;;;8.33;82.78
52935;BME280;38802;50.198;19.796;2022-09-29T02:37:26;94837.49;;;8.31;82.74
52935;BME280;38802;50.198;19.796;2022-09-29T02:40:03;94842.09;;;8.30;82.81
52935;BME280;38802;50.198;19.796;2022-09-29T02:42:44;94843.83;;;8.28;82.77
52935;BME280;38802;50.198;19.796;2022-09-29T02:56:02;94847.05;;;8.14;82.72
52935;BME280;38802;50.198;19.796;2022-09-29T02:58:43;94851.00;;;8.11;82.73
52935;BME280;38802;50.198;19.796;2022-09-29T03:01:16;94852.74;;;8.09;82.88
52935;BME280;38802;50.198;19.796;2022-09-29T03:03:44;94853.56;;;8.08;82.84
52935;BME280;38802;50.198;19.796;2022-09-29T03:06:12;94854.29;;;8.05;82.73
52935;BME280;38802;50.198;19.796;2022-09-29T03:08:41;94858.99;;;8.03;82.81
52935;BME280;38802;50.198;19.796;2022-09-29T03:11:09;94855.02;;;8.00;82.63
52935;BME280;38802;50.198;19.796;2022-09-29T03:13:37;94855.31;;;7.96;82.87
52935;BME280;38802;50.198;19.796;2022-09-29T03:16:05;94857.73;;;7.95;83.00
52935;BME280;38802;50.198;19.796;2022-09-29T03:18:33;94854.98;;;7.93;82.88
52935;BME280;38802;50.198;19.796;2022-09-29T03:21:01;94848.92;;;7.91;82.78
52935;BME280;38802;50.198;19.796;2022-09-29T03:23:29;94848.28;;;7.89;82.92
52935;BME280;38802;50.198;19.796;2022-09-29T03:25:57;94844.09;;;7.87;83.00
52935;BME280;38802;50.198;19.796;2022-09-29T03:28:26;94842.59;;;7.84;82.90
52935;BME280;38802;50.198;19.796;2022-09-29T03:30:54;94842.20;;;7.81;82.95
52935;BME280;38802;50.198;19.796;2022-09-29T03:33:22;94837.52;;;7.79;82.97
52935;BME280;38802;50.198;19.796;2022-09-29T03:35:50;94833.99;;;7.78;82.94
52935;BME280;38802;50.198;19.796;2022-09-29T03:38:18;94830.23;;;7.78;83.10
52935;BME280;38802;50.198;19.796;2022-09-29T03:40:46;94830.18;;;7.77;83.02
52935;BME280;38802;50.198;19.796;2022-09-29T03:43:14;94833.16;;;7.76;83.08
52935;BME280;38802;50.198;19.796;2022-09-29T03:45:49;94826.86;;;7.75;83.01
52935;BME280;38802;50.198;19.796;2022-09-29T03:48:17;94820.28;;;7.75;83.09
52935;BME280;38802;50.198;19.796;2022-09-29T03:50:50;94818.98;;;7.73;82.79
52935;BME280;38802;50.198;19.796;2022-09-29T03:53:20;94824.92;;;7.70;82.98
52935;BME280;38802;50.198;19.796;2022-09-29T03:55:48;94832.60;;;7.70;83.29
52935;BME280;38802;50.198;19.796;2022-09-29T03:58:17;94837.27;;;7.68;83.37
52935;BME280;38802;50.198;19.796;2022-09-29T04:00:46;94843.98;;;7.66;83.24
52935;BME280;38802;50.198;19.796;2022-09-29T04:03:14;94840.30;;;7.65;83.36
52935;BME280;38802;50.198;19.796;2022-09-29T04:05:46;94845.69;;;7.64;83.38
52935;BME280;38802;50.198;19.796;2022-09-29T04:08:15;94853.25;;;7.63;83.37
52935;BME280;38802;50.198;19.796;2022-09-29T04:10:44;94855.77;;;7.62;83.40
52935;BME280;38802;50.198;19.796;2022-09-29T04:13:13;94852.12;;;7.60;83.37
52935;BME280;38802;50.198;19.796;2022-09-29T04:15:47;94854.71;;;7.60;83.46
52935;BME280;38802;50.198;19.796;2022-09-29T04:18:15;94852.52;;;7.60;83.42
52935;BME280;38802;50.198;19.796;2022-09-29T04:20:43;94856.52;;;7.60;83.49
52935;BME280;38802;50.198;19.796;2022-09-29T04:23:11;94858.29;;;7.59;83.39
52935;BME280;38802;50.198;19.796;2022-09-29T04:25:40;94857.88;;;7.60;83.34
52935;BME280;38802;50.198;19.796;2022-09-29T04:28:09;94857.16;;;7.60;83.26
52935;BME280;38802;50.198;19.796;2022-09-29T04:30:37;94861.85;;;7.60;83.56
52935;BME280;38802;50.198;19.796;2022-09-29T04:33:05;94864.44;;;7.58;83.56
52935;BME280;38802;50.198;19.796;2022-09-29T04:35:33;94865.27;;;7.54;83.43
52935;BME280;38802;50.198;19.796;2022-09-29T04:38:04;94867.50;;;7.52;83.56
52935;BME280;38802;50.198;19.796;2022-09-29T04:40:33;94871.02;;;7.52;83.46
52935;BME280;38802;50.198;19.796;2022-09-29T04:43:01;94862.59;;;7.51;83.61
52935;BME280;38802;50.198;19.796;2022-09-29T04:45:30;94862.52;;;7.50;83.39
52935;BME280;38802;50.198;19.796;2022-09-29T04:47:59;94866.51;;;7.49;83.53
52935;BME280;38802;50.198;19.796;2022-09-29T04:50:27;94866.08;;;7.48;83.55
52935;BME280;38802;50.198;19.796;2022-09-29T04:52:55;94868.27;;;7.46;83.46
52935;BME280;38802;50.198;19.796;2022-09-29T04:55:24;94868.75;;;7.47;83.42
52935;BME280;38802;50.198;19.796;2022-09-29T04:57:52;94877.76;;;7.47;83.61
52935;BME280;38802;50.198;19.796;2022-09-29T05:00:20;94884.48;;;7.45;83.44
52935;BME280;38802;50.198;19.796;2022-09-29T05:02:49;94892.09;;;7.41;83.36
52935;BME280;38802;50.198;19.796;2022-09-29T05:05:17;94901.00;;;7.36;83.38
52935;BME280;38802;50.198;19.796;2022-09-29T05:07:45;94906.56;;;7.34;83.46
52935;BME280;38802;50.198;19.796;2022-09-29T05:10:15;94907.54;;;7.32;83.47
52935;BME280;38802;50.198;19.796;2022-09-29T05:12:46;94901.36;;;7.32;83.57
52935;BME280;38802;50.198;19.796;2022-09-29T05:15:15;94899.02;;;7.31;83.73
52935;BME280;38802;50.198;19.796;2022-09-29T05:17:43;94905.99;;;7.30;83.66
52935;BME280;38802;50.198;19.796;2022-09-29T05:20:11;94908.08;;;7.30;83.70
52935;BME280;38802;50.198;19.796;2022-09-29T05:22:39;94907.39;;;7.30;83.84
52935;BME280;38802;50.198;19.796;2022-09-29T05:25:08;94914.48;;;7.30;83.55
52935;BME280;38802;50.198;19.796;2022-09-29T05:27:36;94914.92;;;7.31;83.74
52935;BME280;38802;50.198;19.796;2022-09-29T05:30:05;94916.48;;;7.33;83.81
52935;BME280;38802;50.198;19.796;2022-09-29T05:32:33;94915.18;;;7.34;83.77
52935;BME280;38802;50.198;19.796;2022-09-29T05:35:01;94915.42;;;7.35;83.99
52935;BME280;38802;50.198;19.796;2022-09-29T05:37:30;94915.98;;;7.37;84.05
52935;BME280;38802;50.198;19.796;2022-09-29T05:39:58;94914.36;;;7.35;83.73
52935;BME280;38802;50.198;19.796;2022-09-29T05:42:26;94915.90;;;7.34;83.71
52935;BME280;38802;50.198;19.796;2022-09-29T05:44:54;94921.19;;;7.33;83.79
52935;BME280;38802;50.198;19.796;2022-09-29T05:47:22;94920.45;;;7.31;83.85
52935;BME280;38802;50.198;19.796;2022-09-29T05:49:51;94919.98;;;7.32;83.88
52935;BME280;38802;50.198;19.796;2022-09-29T05:52:19;94912.56;;;7.34;84.13
52935;BME280;38802;50.198;19.796;2022-09-29T05:54:47;94907.66;;;7.37;84.00
52935;BME280;38802;50.198;19.796;2022-09-29T05:57:17;94909.66;;;7.40;84.24
52935;BME280;38802;50.198;19.796;2022-09-29T05:59:45;94910.48;;;7.42;84.03
52935;BME280;38802;50.198;19.796;2022-09-29T06:02:13;94912.30;;;7.45;84.37
52935;BME280;38802;50.198;19.796;2022-09-29T06:04:42;94914.26;;;7.46;84.23
52935;BME280;38802;50.198;19.796;2022-09-29T06:07:10;94917.02;;;7.46;84.02
52935;BME280;38802;50.198;19.796;2022-09-29T06:09:38;94920.20;;;7.47;84.15
52935;BME280;38802;50.198;19.796;2022-09-29T06:12:07;94920.42;;;7.48;84.24
52935;BME280;38802;50.198;19.796;2022-09-29T06:14:35;94922.55;;;7.52;84.37
52935;BME280;38802;50.198;19.796;2022-09-29T06:17:03;94922.92;;;7.55;84.50
52935;BME280;38802;50.198;19.796;2022-09-29T06:19:31;94921.02;;;7.59;84.47
52935;BME280;38802;50.198;19.796;2022-09-29T06:21:59;94919.63;;;7.63;84.42
52935;BME280;38802;50.198;19.796;2022-09-29T06:24:27;94916.72;;;7.68;84.60
52935;BME280;38802;50.198;19.796;2022-09-29T06:26:55;94915.96;;;7.73;84.37
52935;BME280;38802;50.198;19.796;2022-09-29T06:29:23;94917.55;;;7.78;84.54
52935;BME280;38802;50.198;19.796;2022-09-29T06:31:51;94912.73;;;7.81;84.73
52935;BME280;38802;50.198;19.796;2022-09-29T06:34:21;94909.65;;;7.85;84.85
52935;BME280;38802;50.198;19.796;2022-09-29T06:36:49;94910.02;;;7.88;84.70
52935;BME280;38802;50.198;19.796;2022-09-29T06:39:36;94912.07;;;7.95;84.46
52935;BME280;38802;50.198;19.796;2022-09-29T06:42:04;94907.16;;;7.99;84.37
52935;BME280;38802;50.198;19.796;2022-09-29T06:44:33;94909.56;;;8.02;84.46
52935;BME280;38802;50.198;19.796;2022-09-29T06:47:01;94914.80;;;8.06;84.60
52935;BME280;38802;50.198;19.796;2022-09-29T06:49:29;94912.98;;;8.08;84.57
52935;BME280;38802;50.198;19.796;2022-09-29T06:51:57;94916.66;;;8.11;84.46
52935;BME280;38802;50.198;19.796;2022-09-29T06:54:26;94921.87;;;8.13;84.28
52935;BME280;38802;50.198;19.796;2022-09-29T06:56:55;94922.08;;;8.15;84.39
52935;BME280;38802;50.198;19.796;2022-09-29T06:59:23;94922.48;;;8.16;84.41
52935;BME280;38802;50.198;19.796;2022-09-29T07:01:51;94921.23;;;8.16;84.44
52935;BME280;38802;50.198;19.796;2022-09-29T07:04:20;94917.06;;;8.18;84.54
52935;BME280;38802;50.198;19.796;2022-09-29T07:06:49;94920.77;;;8.19;84.51
52935;BME280;38802;50.198;19.796;2022-09-29T07:09:17;94929.02;;;8.20;84.43
52935;BME280;38802;50.198;19.796;2022-09-29T07:11:48;94924.92;;;8.22;84.40
52935;BME280;38802;50.198;19.796;2022-09-29T07:14:17;94924.77;;;8.23;84.51
52935;BME280;38802;50.198;19.796;2022-09-29T07:16:47;94920.00;;;8.24;84.42
52935;BME280;38802;50.198;19.796;2022-09-29T07:19:16;94922.08;;;8.26;84.57
52935;BME280;38802;50.198;19.796;2022-09-29T07:21:45;94918.02;;;8.29;84.56
52935;BME280;38802;50.198;19.796;2022-09-29T07:24:14;94918.86;;;8.31;84.54
52935;BME280;38802;50.198;19.796;2022-09-29T07:26:43;94922.14;;;8.35;84.57
52935;BME280;38802;50.198;19.796;2022-09-29T07:29:11;94925.63;;;8.38;84.57
52935;BME280;38802;50.198;19.796;2022-09-29T07:31:43;94930.86;;;8.41;84.58
52935;BME280;38802;50.198;19.796;2022-09-29T07:34:20;94931.64;;;8.44;84.43
52935;BME280;38802;50.198;19.796;2022-09-29T07:36:49;94937.85;;;8.46;84.33
52935;BME280;38802;50.198;19.796;2022-09-29T07:39:18;94942.30;;;8.48;84.48
52935;BME280;38802;50.198;19.796;2022-09-29T07:41:47;94943.46;;;8.51;84.47
52935;BME280;38802;50.198;19.796;2022-09-29T07:44:15;94946.98;;;8.52;84.49
52935;BME280;38802;50.198;19.796;2022-09-29T07:46:46;94946.13;;;8.56;84.49
52935;BME280;38802;50.198;19.796;2022-09-29T07:49:14;94952.33;;;8.61;84.52
52935;BME280;38802;50.198;19.796;2022-09-29T07:51:43;94956.41;;;8.66;84.50
52935;BME280;38802;50.198;19.796;2022-09-29T07:54:11;94955.23;;;8.69;84.46
52935;BME280;38802;50.198;19.796;2022-09-29T07:56:39;94956.67;;;8.72;84.50
52935;BME280;38802;50.198;19.796;2022-09-29T07:59:09;94956.13;;;8.74;84.44
52935;BME280;38802;50.198;19.796;2022-09-29T08:01:37;94959.80;;;8.77;84.54
52935;BME280;38802;50.198;19.796;2022-09-29T08:04:05;94961.63;;;8.82;84.54
52935;BME280;38802;50.198;19.796;2022-09-29T08:06:34;94960.98;;;8.87;84.41
52935;BME280;38802;50.198;19.796;2022-09-29T08:09:02;94962.31;;;8.91;84.25
52935;BME280;38802;50.198;19.796;2022-09-29T08:11:35;94959.80;;;8.96;84.28
52935;BME280;38802;50.198;19.796;2022-09-29T08:14:04;94962.77;;;9.01;84.46
52935;BME280;38802;50.198;19.796;2022-09-29T08:16:32;94967.17;;;9.03;83.93
52935;BME280;38802;50.198;19.796;2022-09-29T08:19:02;94969.39;;;9.04;83.97
52935;BME280;38802;50.198;19.796;2022-09-29T08:21:31;94975.56;;;9.08;83.95
52935;BME280;38802;50.198;19.796;2022-09-29T08:24:04;94974.16;;;9.08;83.81
52935;BME280;38802;50.198;19.796;2022-09-29T08:26:35;94980.73;;;9.10;83.70
52935;BME280;38802;50.198;19.796;2022-09-29T08:29:12;94985.77;;;9.12;83.68
52935;BME280;38802;50.198;19.796;2022-09-29T08:31:44;94987.02;;;9.17;84.08
52935;BME280;38802;50.198;19.796;2022-09-29T08:34:13;94987.41;;;9.22;84.03
52935;BME280;38802;50.198;19.796;2022-09-29T08:36:42;94985.66;;;9.22;83.89
52935;BME280;38802;50.198;19.796;2022-09-29T08:39:10;94987.21;;;9.24;83.92
52935;BME280;38802;50.198;19.796;2022-09-29T08:47:27;94996.73;;;9.31;84.04
52935;BME280;38802;50.198;19.796;2022-09-29T08:50:13;94999.43;;;9.32;84.06
52935;BME280;38802;50.198;19.796;2022-09-29T08:52:51;94999.49;;;9.35;84.22
52935;BME280;38802;50.198;19.796;2022-09-29T08:55:22;95000.70;;;9.33;83.98
52935;BME280;38802;50.198;19.796;2022-09-29T08:57:55;95005.11;;;9.32;84.00
52935;BME280;38802;50.198;19.796;2022-09-29T09:00:29;95006.92;;;9.30;83.95
52935;BME280;38802;50.198;19.796;2022-09-29T09:09:05;95011.09;;;9.28;84.00
52935;BME280;38802;50.198;19.796;2022-09-29T09:19:30;95011.14;;;9.29;83.79
52935;BME280;38802;50.198;19.796;2022-09-29T09:24:46;95011.08;;;9.23;83.65
52935;BME280;38802;50.198;19.796;2022-09-29T09:27:17;95007.55;;;9.22;83.79
52935;BME280;38802;50.198;19.796;2022-09-29T09:29:46;95006.56;;;9.19;83.77
52935;BME280;38802;50.198;19.796;2022-09-29T09:32:21;95010.67;;;9.18;83.83
52935;BME280;38802;50.198;19.796;2022-09-29T09:34:54;95012.26;;;9.18;83.73
52935;BME280;38802;50.198;19.796;2022-09-29T09:37:33;95018.98;;;9.20;83.82
52935;BME280;38802;50.198;19.796;2022-09-29T09:40:27;95019.05;;;9.21;83.77
52935;BME280;38802;50.198;19.796;2022-09-29T09:51:31;95021.05;;;9.16;83.78
52935;BME280;38802;50.198;19.796;2022-09-29T09:54:03;95024.34;;;9.16;83.78
52935;BME280;38802;50.198;19.796;2022-09-29T09:59:15;95032.05;;;9.17;83.82
52935;BME280;38802;50.198;19.796;2022-09-29T10:01:48;95037.70;;;9.18;83.75
52935;BME280;38802;50.198;19.796;2022-09-29T10:04:17;95033.58;;;9.18;83.83
52935;BME280;38802;50.198;19.796;2022-09-29T10:06:45;95040.99;;;9.18;83.79
52935;BME280;38802;50.198;19.796;2022-09-29T10:09:13;95044.73;;;9.19;83.76
52935;BME280;38802;50.198;19.796;2022-09-29T10:11:42;95049.02;;;9.19;83.76
52935;BME280;38802;50.198;19.796;2022-09-29T10:14:22;95053.36;;;9.21;83.92
52935;BME280;38802;50.198;19.796;2022-09-29T10:16:57;95051.91;;;9.22;83.88
52935;BME280;38802;50.198;19.796;2022-09-29T10:22:13;95046.99;;;9.21;83.86
52935;BME280;38802;50.198;19.796;2022-09-29T10:24:41;95045.19;;;9.20;83.71
52935;BME280;38802;50.198;19.796;2022-09-29T10:27:10;95048.92;;;9.19;83.67
52935;BME280;38802;50.198;19.796;2022-09-29T10:29:44;95051.03;;;9.18;83.88
52935;BME280;38802;50.198;19.796;2022-09-29T10:32:28;95049.20;;;9.17;83.79
52935;BME280;38802;50.198;19.796;2022-09-29T10:35:08;95047.59;;;9.18;83.85
52935;BME280;38802;50.198;19.796;2022-09-29T10:37:45;95053.33;;;9.18;83.97
52935;BME280;38802;50.198;19.796;2022-09-29T10:40:18;95051.42;;;9.18;83.94
52935;BME280;38802;50.198;19.796;2022-09-29T10:42:50;95049.65;;;9.17;83.91
52935;BME280;38802;50.198;19.796;2022-09-29T10:45:21;95053.55;;;9.16;83.86
52935;BME280;38802;50.198;19.796;2022-09-29T10:50:25;95051.96;;;9.10;83.83
52935;BME280;38802;50.198;19.796;2022-09-29T10:52:58;95055.30;;;9.07;84.05
52935;BME280;38802;50.198;19.796;2022-09-29T10:55:31;95062.01;;;9.03;84.07
52935;BME280;38802;50.198;19.796;2022-09-29T10:58:00;95063.80;;;8.96;84.09
52935;BME280;38802;50.198;19.796;2022-09-29T11:03:01;95071.22;;;8.84;83.95
52935;BME280;38802;50.198;19.796;2022-09-29T11:05:31;95082.39;;;8.79;84.01
52935;BME280;38802;50.198;19.796;2022-09-29T11:07:59;95084.49;;;8.75;83.77
52935;BME280;38802;50.198;19.796;2022-09-29T11:10:35;95086.80;;;8.73;83.83
52935;BME280;38802;50.198;19.796;2022-09-29T11:15:54;95090.11;;;8.67;83.79
52935;BME280;38802;50.198;19.796;2022-09-29T11:18:35;95086.67;;;8.65;83.66
52935;BME280;38802;50.198;19.796;2022-09-29T11:26:46;95088.42;;;8.63;83.81
52935;BME280;38802;50.198;19.796;2022-09-29T11:34:45;95088.86;;;8.72;83.84
52935;BME280;38802;50.198;19.796;2022-09-29T11:37:27;95090.34;;;8.76;83.95
52935;BME280;38802;50.198;19.796;2022-09-29T11:40:10;95095.11;;;8.80;83.99
52935;BME280;38802;50.198;19.796;2022-09-29T11:42:52;95091.04;;;8.83;84.01
52935;BME280;38802;50.198;19.796;2022-09-29T11:45:31;95090.81;;;8.86;83.84
52935;BME280;38802;50.198;19.796;2022-09-29T11:48:22;95091.56;;;8.85;83.85
52935;BME280;38802;50.198;19.796;2022-09-29T11:53:35;95085.98;;;8.88;83.98
52935;BME280;38802;50.198;19.796;2022-09-29T12:12:17;95097.27;;;8.89;83.67
52935;BME280;38802;50.198;19.796;2022-09-29T12:17:20;95093.05;;;8.93;83.84
52935;BME280;38802;50.198;19.796;2022-09-29T12:19:51;95095.55;;;8.96;83.74
52935;BME280;38802;50.198;19.796;2022-09-29T12:22:20;95096.21;;;8.96;84.05
52935;BME280;38802;50.198;19.796;2022-09-29T12:24:52;95095.45;;;9.01;84.13
52935;BME280;38802;50.198;19.796;2022-09-29T12:29:50;95090.48;;;9.05;83.97
52935;BME280;38802;50.198;19.796;2022-09-29T12:32:22;95091.80;;;9.10;83.77
52935;BME280;38802;50.198;19.796;2022-09-29T12:34:57;95097.04;;;9.15;83.94
52935;BME280;38802;50.198;19.796;2022-09-29T12:40:24;95105.13;;;9.27;84.08
52935;BME280;38802;50.198;19.796;2022-09-29T12:43:03;95103.63;;;9.30;83.59
52935;BME280;38802;50.198;19.796;2022-09-29T12:45:45;95103.38;;;9.34;83.69
52935;BME280;38802;50.198;19.796;2022-09-29T12:51:12;95098.70;;;9.43;83.24
52935;BME280;38802;50.198;19.796;2022-09-29T12:53:49;95101.43;;;9.47;83.61
52935;BME280;38802;50.198;19.796;2022-09-29T12:56:21;95101.90;;;9.51;83.46
52935;BME280;38802;50.198;19.796;2022-09-29T12:58:57;95098.80;;;9.57;83.48
52935;BME280;38802;50.198;19.796;2022-09-29T13:01:32;95096.14;;;9.61;83.03
52935;BME280;38802;50.198;19.796;2022-09-29T13:19:58;95099.05;;;9.77;82.32
52935;BME280;38802;50.198;19.796;2022-09-29T13:22:35;95096.13;;;9.79;82.42
52935;BME280;38802;50.198;19.796;2022-09-29T13:25:15;95097.58;;;9.84;82.20
52935;BME280;38802;50.198;19.796;2022-09-29T13:27:45;95101.02;;;9.84;82.12
52935;BME280;38802;50.198;19.796;2022-09-29T13:30:16;95100.95;;;9.83;81.86
52935;BME280;38802;50.198;19.796;2022-09-29T13:32:49;95105.16;;;9.84;81.92
52935;BME280;38802;50.198;19.796;2022-09-29T13:35:19;95104.86;;;9.87;82.38
52935;BME280;38802;50.198;19.796;2022-09-29T13:38:04;95111.58;;;9.89;81.83
52935;BME280;38802;50.198;19.796;2022-09-29T13:40:33;95113.37;;;9.90;81.91
52935;BME280;38802;50.198;19.796;2022-09-29T13:43:02;95112.77;;;9.93;82.00
52935;BME280;38802;50.198;19.796;2022-09-29T13:50:51;95110.88;;;10.03;81.98
52935;BME280;38802;50.198;19.796;2022-09-29T13:58:32;95113.51;;;10.11;81.80
52935;BME280;38802;50.198;19.796;2022-09-29T14:01:02;95117.96;;;10.11;81.85
52935;BME280;38802;50.198;19.796;2022-09-29T14:06:04;95126.17;;;10.12;81.88
52935;BME280;38802;50.198;19.796;2022-09-29T14:21:54;95139.52;;;10.28;81.47
52935;BME280;38802;50.198;19.796;2022-09-29T14:35:30;95149.93;;;10.25;81.89
52935;BME280;38802;50.198;19.796;2022-09-29T14:38:03;95153.98;;;10.26;81.71
52935;BME280;38802;50.198;19.796;2022-09-29T14:40:33;95158.31;;;10.28;81.50
52935;BME280;38802;50.198;19.796;2022-09-29T14:43:02;95161.83;;;10.27;81.55
52935;BME280;38802;50.198;19.796;2022-09-29T14:45:31;95159.66;;;10.19;81.24
52935;BME280;38802;50.198;19.796;2022-09-29T14:48:26;95160.43;;;10.12;81.44
52935;BME280;38802;50.198;19.796;2022-09-29T14:51:31;95157.05;;;10.09;81.66
52935;BME280;38802;50.198;19.796;2022-09-29T14:54:24;95150.36;;;10.06;81.56
52935;BME280;38802;50.198;19.796;2022-09-29T14:59:49;95152.95;;;9.97;81.63
52935;BME280;38802;50.198;19.796;2022-09-29T15:02:26;95157.08;;;9.92;81.58
52935;BME280;38802;50.198;19.796;2022-09-29T15:04:56;95163.84;;;9.89;81.79
52935;BME280;38802;50.198;19.796;2022-09-29T15:07:25;95162.80;;;9.82;81.81
52935;BME280;38802;50.198;19.796;2022-09-29T15:09:57;95158.66;;;9.78;82.01
52935;BME280;38802;50.198;19.796;2022-09-29T15:12:27;95160.94;;;9.78;82.04
52935;BME280;38802;50.198;19.796;2022-09-29T15:14:55;95166.86;;;9.78;82.01
52935;BME280;38802;50.198;19.796;2022-09-29T15:19:59;95184.69;;;9.78;82.10
52935;BME280;38802;50.198;19.796;2022-09-29T15:22:45;95184.15;;;9.76;82.28
52935;BME280;38802;50.198;19.796;2022-09-29T15:25:24;95183.93;;;9.75;82.11
52935;BME280;38802;50.198;19.796;2022-09-29T15:30:30;95192.85;;;9.65;82.21
52935;BME280;38802;50.198;19.796;2022-09-29T15:35:48;95193.13;;;9.59;82.31
52935;BME280;38802;50.198;19.796;2022-09-29T15:40:56;95201.70;;;9.49;82.20
52935;BME280;38802;50.198;19.796;2022-09-29T15:43:27;95194.74;;;9.43;82.10
52935;BME280;38802;50.198;19.796;2022-09-29T15:45:57;95195.55;;;9.36;82.25
52935;BME280;38802;50.198;19.796;2022-09-29T15:48:27;95193.49;;;9.31;82.23
52935;BME280;38802;50.198;19.796;2022-09-29T15:50:56;95197.38;;;9.25;82.19
52935;BME280;38802;50.198;19.796;2022-09-29T15:53:26;95200.80;;;9.20;82.28
52935;BME280;38802;50.198;19.796;2022-09-29T15:55:54;95202.77;;;9.13;82.26
52935;BME280;38802;50.198;19.796;2022-09-29T16:01:03;95203.73;;;9.04;82.46
52935;BME280;38802;50.198;19.796;2022-09-29T16:03:38;95207.67;;;9.01;82.41
52935;BME280;38802;50.198;19.796;2022-09-29T16:08:45;95215.17;;;8.93;82.47
52935;BME280;38802;50.198;19.796;2022-09-29T16:11:33;95220.59;;;8.91;82.49
52935;BME280;38802;50.198;19.796;2022-09-29T16:14:05;95221.09;;;8.87;82.41
52935;BME280;38802;50.198;19.796;2022-09-29T16:16:35;95222.33;;;8.83;82.43
52935;BME280;38802;50.198;19.796;2022-09-29T16:21:59;95219.36;;;8.72;82.48
52935;BME280;38802;50.198;19.796;2022-09-29T16:24:31;95216.67;;;8.69;82.52
52935;BME280;38802;50.198;19.796;2022-09-29T16:27:00;95214.14;;;8.64;82.52
52935;BME280;38802;50.198;19.796;2022-09-29T16:29:29;95215.63;;;8.60;82.44
52935;BME280;38802;50.198;19.796;2022-09-29T16:31:58;95226.24;;;8.55;82.45
52935;BME280;38802;50.198;19.796;2022-09-29T16:34:28;95231.55;;;8.50;82.53
52935;BME280;38802;50.198;19.796;2022-09-29T16:36:58;95235.16;;;8.47;82.48